createdAt,value
2017-04-06T00:00:43.554Z,0
2017-04-06T00:01:28.963Z,0
2017-04-06T00:02:28.983Z,0
2017-04-06T00:03:28.996Z,0
2017-04-06T00:04:28.716Z,0
2017-04-06T00:05:29.040Z,0
2017-04-06T00:06:28.756Z,0
2017-04-06T00:07:29.073Z,0
2017-04-06T00:08:43.708Z,0
2017-04-06T00:09:29.108Z,0
2017-04-06T00:10:29.132Z,0
2017-04-06T00:12:43.486Z,0
2017-04-06T00:13:43.502Z,0
2017-04-06T00:15:29.232Z,0
2017-04-06T00:16:29.274Z,0
2017-04-06T00:17:29.272Z,0
2017-04-06T00:18:29.314Z,0
2017-04-06T00:19:29.307Z,0
2017-04-06T00:20:29.323Z,0
2017-04-06T00:21:29.348Z,0
2017-04-06T00:22:29.369Z,0
2017-04-06T00:23:29.386Z,0
2017-04-06T00:24:29.404Z,0
2017-04-06T00:25:29.119Z,0
2017-04-06T00:26:44.089Z,0
2017-04-06T00:28:29.479Z,0
2017-04-06T00:29:29.503Z,0
2017-04-06T00:30:29.523Z,0
2017-04-06T00:31:29.556Z,0
2017-04-06T00:32:58.794Z,0
2017-04-06T00:33:29.578Z,0
2017-04-06T00:34:29.600Z,0
2017-04-06T00:35:29.617Z,0
2017-04-06T00:36:29.639Z,0
2017-04-06T00:37:29.654Z,0
2017-04-06T00:38:44.290Z,0
2017-04-06T00:39:29.698Z,0
2017-04-06T00:40:44.327Z,0
2017-04-06T00:41:29.736Z,0
2017-04-06T00:43:29.769Z,0
2017-04-06T00:44:44.418Z,0
2017-04-06T00:45:29.814Z,0
2017-04-06T00:46:29.831Z,0
2017-04-06T00:47:29.849Z,0
2017-04-06T00:48:44.479Z,0
2017-04-06T00:49:29.888Z,0
2017-04-06T00:50:29.602Z,0
2017-04-06T00:51:29.925Z,0
2017-04-06T00:52:29.944Z,0
2017-04-06T00:53:29.964Z,0
2017-04-06T00:54:44.599Z,0
2017-04-06T00:55:44.616Z,0
2017-04-06T00:56:30.021Z,0
2017-04-06T00:57:44.353Z,0
2017-04-06T00:58:30.062Z,0
2017-04-06T01:00:30.096Z,0
2017-04-06T01:01:30.119Z,0
2017-04-06T01:02:30.140Z,0
2017-04-06T01:04:44.791Z,0
2017-04-06T01:05:30.195Z,0
2017-04-06T01:06:30.214Z,0
2017-04-06T01:07:30.234Z,0
2017-04-06T01:08:29.952Z,0
2017-04-06T01:09:30.266Z,0
2017-04-06T01:10:30.290Z,0
2017-04-06T01:11:30.305Z,0
2017-04-06T01:12:30.332Z,0
2017-04-06T01:13:30.348Z,0
2017-04-06T01:14:30.058Z,0
2017-04-06T01:15:30.236Z,0
2017-04-06T01:18:30.451Z,0
2017-04-06T01:19:30.467Z,0
2017-04-06T01:20:45.097Z,0
2017-04-06T01:21:30.500Z,0
2017-04-06T01:22:30.473Z,0
2017-04-06T01:23:30.236Z,0
2017-04-06T01:24:30.555Z,0
2017-04-06T01:25:30.578Z,0
2017-04-06T01:26:30.599Z,0
2017-04-06T01:27:30.314Z,0
2017-04-06T01:28:30.635Z,0
2017-04-06T01:29:30.498Z,0
2017-04-06T01:30:30.671Z,0
2017-04-06T01:31:30.694Z,0
2017-04-06T01:32:45.325Z,0
2017-04-06T01:33:30.734Z,0
2017-04-06T01:34:30.753Z,0
2017-04-06T01:35:45.082Z,0
2017-04-06T01:36:30.790Z,0
2017-04-06T01:37:30.810Z,0
2017-04-06T01:38:30.827Z,0
2017-04-06T01:39:30.844Z,0
2017-04-06T01:40:30.864Z,0
2017-04-06T01:41:30.879Z,0
2017-04-06T01:42:30.902Z,0
2017-04-06T01:43:30.922Z,0
2017-04-06T01:44:31.040Z,0
2017-04-06T01:45:45.581Z,0
2017-04-06T01:48:31.020Z,0
2017-04-06T01:49:31.035Z,0
2017-04-06T01:50:31.051Z,0
2017-04-06T01:51:31.080Z,0
2017-04-06T01:52:30.788Z,0
2017-04-06T01:53:31.121Z,0
2017-04-06T01:54:31.129Z,0
2017-04-06T01:55:31.152Z,0
2017-04-06T01:56:31.171Z,0
2017-04-06T01:57:45.805Z,0
2017-04-06T01:58:31.213Z,0
2017-04-06T01:59:45.843Z,0
2017-04-06T02:00:45.556Z,0
2017-04-06T02:01:31.264Z,0
2017-04-06T02:02:45.900Z,0
2017-04-06T02:03:31.051Z,0
2017-04-06T02:04:31.335Z,0
2017-04-06T02:05:31.339Z,0
2017-04-06T02:06:31.360Z,0
2017-04-06T02:07:45.996Z,0
2017-04-06T02:08:31.396Z,0
2017-04-06T02:09:31.416Z,0
2017-04-06T02:10:31.437Z,0
2017-04-06T02:11:46.073Z,0
2017-04-06T02:12:31.478Z,0
2017-04-06T02:13:31.494Z,0
2017-04-06T02:14:31.509Z,0
2017-04-06T02:15:31.531Z,0
2017-04-06T02:16:31.549Z,0
2017-04-06T02:17:31.572Z,0
2017-04-06T02:18:31.594Z,0
2017-04-06T02:19:31.604Z,0
2017-04-06T02:20:31.625Z,0
2017-04-06T02:21:31.646Z,0
2017-04-06T02:22:31.663Z,0
2017-04-06T02:23:45.995Z,0
2017-04-06T02:24:31.700Z,0
2017-04-06T02:25:31.717Z,0
2017-04-06T02:26:31.733Z,0
2017-04-06T02:27:31.753Z,0
2017-04-06T02:28:31.772Z,0
2017-04-06T02:29:31.792Z,0
2017-04-06T02:30:31.514Z,0
2017-04-06T02:31:31.540Z,0
2017-04-06T02:32:46.465Z,0
2017-04-06T02:33:46.529Z,0
2017-04-06T02:34:31.892Z,0
2017-04-06T02:35:46.522Z,0
2017-04-06T02:36:31.623Z,0
2017-04-06T02:37:31.642Z,0
2017-04-06T02:38:31.963Z,0
2017-04-06T02:39:46.596Z,0
2017-04-06T02:40:31.700Z,0
2017-04-06T02:41:31.714Z,0
2017-04-06T02:42:31.737Z,0
2017-04-06T02:43:32.054Z,0
2017-04-06T02:44:32.074Z,0
2017-04-06T02:45:32.098Z,0
2017-04-06T02:46:32.114Z,0
2017-04-06T02:47:46.745Z,0
2017-04-06T02:48:32.147Z,0
2017-04-06T02:49:32.167Z,0
2017-04-06T02:50:32.187Z,0
2017-04-06T02:51:46.819Z,0
2017-04-06T02:52:46.838Z,0
2017-04-06T02:53:32.249Z,0
2017-04-06T02:54:32.261Z,0
2017-04-06T02:55:46.898Z,0
2017-04-06T02:56:32.299Z,0
2017-04-06T02:57:32.319Z,0
2017-04-06T02:58:46.651Z,0
2017-04-06T02:59:32.354Z,0
2017-04-06T03:00:32.374Z,0
2017-04-06T03:01:32.389Z,0
2017-04-06T03:02:32.408Z,0
2017-04-06T03:03:32.429Z,0
2017-04-06T03:04:32.446Z,0
2017-04-06T03:05:47.084Z,0
2017-04-06T03:06:32.482Z,0
2017-04-06T03:07:32.511Z,0
2017-04-06T03:08:32.520Z,0
2017-04-06T03:09:32.539Z,0
2017-04-06T03:10:47.174Z,0
2017-04-06T03:12:32.597Z,0
2017-04-06T03:13:32.619Z,0
2017-04-06T03:14:32.326Z,0
2017-04-06T03:15:32.651Z,0
2017-04-06T03:16:47.286Z,0
2017-04-06T03:17:32.694Z,0
2017-04-06T03:18:47.321Z,0
2017-04-06T03:19:32.724Z,0
2017-04-06T03:20:32.743Z,0
2017-04-06T03:21:47.409Z,0
2017-04-06T03:22:32.484Z,0
2017-04-06T03:23:32.803Z,0
2017-04-06T03:24:32.819Z,0
2017-04-06T03:25:32.837Z,0
2017-04-06T03:26:32.863Z,0
2017-04-06T03:27:33.328Z,0
2017-04-06T03:28:32.889Z,0
2017-04-06T03:29:32.916Z,0
2017-04-06T03:30:32.930Z,0
2017-04-06T03:31:32.947Z,0
2017-04-06T03:32:32.970Z,0
2017-04-06T03:33:32.980Z,0
2017-04-06T03:34:33.008Z,0
2017-04-06T03:35:33.032Z,0
2017-04-06T03:36:33.058Z,0
2017-04-06T03:37:33.059Z,0
2017-04-06T03:38:47.691Z,0
2017-04-06T03:39:33.095Z,0
2017-04-06T03:40:33.115Z,0
2017-04-06T03:41:33.145Z,0
2017-04-06T03:42:47.765Z,0
2017-04-06T03:43:33.178Z,0
2017-04-06T03:44:33.204Z,0
2017-04-06T03:45:33.207Z,0
2017-04-06T03:46:33.225Z,0
2017-04-06T03:47:33.244Z,0
2017-04-06T03:48:33.270Z,0
2017-04-06T03:49:33.305Z,0
2017-04-06T03:50:33.301Z,0
2017-04-06T03:51:47.937Z,0
2017-04-06T03:52:47.947Z,0
2017-04-06T03:54:33.371Z,0
2017-04-06T03:56:33.109Z,4
2017-04-06T03:57:33.430Z,4
2017-04-06T03:58:48.064Z,4
2017-04-06T03:59:33.463Z,0
2017-04-06T04:00:33.486Z,0
2017-04-06T04:01:33.503Z,4
2017-04-06T04:02:33.523Z,0
2017-04-06T04:03:47.852Z,4
2017-04-06T04:04:33.252Z,4
2017-04-06T04:05:48.192Z,8
2017-04-06T04:06:33.593Z,8
2017-04-06T04:07:33.609Z,8
2017-04-06T04:08:33.641Z,12
2017-04-06T04:09:33.681Z,8
2017-04-06T04:10:48.286Z,12
2017-04-06T04:12:33.706Z,20
2017-04-06T04:13:33.735Z,32
2017-04-06T04:14:48.357Z,40
2017-04-06T04:15:33.761Z,52
2017-04-06T04:16:33.781Z,72
2017-04-06T04:17:33.799Z,88
2017-04-06T04:18:33.818Z,108
2017-04-06T04:19:33.835Z,124
2017-04-06T04:20:33.865Z,144
2017-04-06T04:21:33.873Z,160
2017-04-06T04:22:48.207Z,188
2017-04-06T04:23:33.908Z,208
2017-04-06T04:24:48.254Z,236
2017-04-06T04:25:48.559Z,252
2017-04-06T04:27:33.986Z,288
2017-04-06T04:29:34.024Z,300
2017-04-06T04:30:48.657Z,284
2017-04-06T04:31:33.755Z,248
2017-04-06T04:32:34.080Z,220
2017-04-06T04:33:34.095Z,212
2017-04-06T04:34:34.114Z,204
2017-04-06T04:35:34.140Z,200
2017-04-06T04:36:34.149Z,208
2017-04-06T04:37:48.785Z,216
2017-04-06T04:38:34.189Z,228
2017-04-06T04:39:34.207Z,280
2017-04-06T04:40:34.221Z,336
2017-04-06T04:41:48.857Z,376
2017-04-06T04:42:48.877Z,352
2017-04-06T04:43:34.279Z,356
2017-04-06T04:44:34.307Z,364
2017-04-06T04:45:48.931Z,480
2017-04-06T04:46:34.341Z,620
2017-04-06T04:47:34.357Z,868
2017-04-06T04:48:34.374Z,1028
2017-04-06T04:49:34.394Z,1032
2017-04-06T04:51:34.440Z,784
2017-04-06T04:52:34.459Z,720
2017-04-06T04:53:48.777Z,644
2017-04-06T04:54:34.180Z,652
2017-04-06T04:55:34.502Z,748
2017-04-06T04:56:49.139Z,916
2017-04-06T04:57:34.541Z,916
2017-04-06T05:00:34.298Z,992
2017-04-06T05:01:34.625Z,1016
2017-04-06T05:02:34.938Z,1304
2017-04-06T05:03:34.353Z,1556
2017-04-06T05:04:34.673Z,1632
2017-04-06T05:05:34.694Z,3420
2017-04-06T05:06:34.710Z,5192
2017-04-06T05:07:34.724Z,3144
2017-04-06T05:08:34.750Z,4076
2017-04-06T05:09:34.764Z,3852
2017-04-06T05:10:34.783Z,3504
2017-04-06T05:11:34.808Z,3852
2017-04-06T05:12:49.437Z,4668
2017-04-06T05:14:49.474Z,6128
2017-04-06T05:15:34.572Z,7088
2017-04-06T05:16:34.593Z,8836
2017-04-06T05:17:49.227Z,21120
2017-04-06T05:18:34.936Z,7904
2017-04-06T05:19:34.659Z,7848
2017-04-06T05:20:34.973Z,23232
2017-04-06T05:21:35.005Z,14272
2017-04-06T05:22:49.631Z,13408
2017-04-06T05:23:35.032Z,8196
2017-04-06T05:24:34.445Z,4412
2017-04-06T05:25:35.151Z,4880
2017-04-06T05:26:35.097Z,5624
2017-04-06T05:27:34.506Z,6468
2017-04-06T05:28:35.136Z,6972
2017-04-06T05:29:34.850Z,5276
2017-04-06T05:30:35.178Z,4988
2017-04-06T05:31:35.200Z,4612
2017-04-06T05:32:34.907Z,4524
2017-04-06T05:33:49.851Z,4684
2017-04-06T05:34:35.253Z,5068
2017-04-06T05:35:35.274Z,5132
2017-04-06T05:36:35.293Z,5796
2017-04-06T05:37:35.316Z,6028
2017-04-06T05:38:35.336Z,11168
2017-04-06T05:39:35.353Z,12152
2017-04-06T05:40:35.371Z,32032
2017-04-06T05:41:35.097Z,36128
2017-04-06T05:42:50.028Z,17888
2017-04-06T05:43:35.446Z,15712
2017-04-06T05:45:35.486Z,31264
2017-04-06T05:46:35.517Z,16672
2017-04-06T05:47:35.516Z,22496
2017-04-06T05:48:35.545Z,26656
2017-04-06T05:49:50.176Z,44032
2017-04-06T05:50:35.582Z,39104
2017-04-06T05:51:35.621Z,34816
2017-04-06T05:52:35.626Z,44192
2017-04-06T05:53:35.642Z,45664
2017-04-06T05:54:35.368Z,51264
2017-04-06T05:55:35.690Z,40064
2017-04-06T05:56:36.219Z,25088
2017-04-06T05:58:35.759Z,64704
2017-04-06T06:00:35.810Z,55456
2017-04-06T06:01:35.840Z,47200
2017-04-06T06:02:35.866Z,29600
2017-04-06T06:03:35.883Z,48864
2017-04-06T06:04:35.909Z,26432
2017-04-06T06:05:50.550Z,18080
2017-04-06T06:06:35.955Z,24800
2017-04-06T06:07:35.793Z,44512
2017-04-06T06:08:36.008Z,61184
2017-04-06T06:09:36.034Z,67360
2017-04-06T06:10:36.061Z,66624
2017-04-06T06:11:36.085Z,69120
2017-04-06T06:12:36.109Z,65632
2017-04-06T06:13:50.754Z,17376
2017-04-06T06:14:50.777Z,20224
2017-04-06T06:15:36.186Z,72704
2017-04-06T06:16:50.864Z,72544
2017-04-06T06:17:36.241Z,72256
2017-04-06T06:18:36.268Z,39744
2017-04-06T06:19:36.287Z,18464
2017-04-06T06:20:50.635Z,21024
2017-04-06T06:22:36.374Z,64352
2017-04-06T06:23:36.397Z,71392
2017-04-06T06:24:36.426Z,75872
2017-04-06T06:25:50.767Z,58304
2017-04-06T06:26:36.481Z,77376
2017-04-06T06:27:36.505Z,75200
2017-04-06T06:28:36.530Z,72864
2017-04-06T06:29:36.568Z,77568
2017-04-06T06:30:36.589Z,78176
2017-04-06T06:32:36.640Z,76704
2017-04-06T06:33:36.671Z,72768
2017-04-06T06:34:36.710Z,65376
2017-04-06T06:35:36.733Z,77760
2017-04-06T06:37:36.787Z,73952
2017-04-06T06:38:36.812Z,69728
2017-04-06T06:39:36.840Z,77408
2017-04-06T06:40:36.871Z,76704
2017-04-06T06:41:36.947Z,75808
2017-04-06T06:43:06.160Z,74080
2017-04-06T06:43:36.648Z,72896
2017-04-06T06:44:36.681Z,69216
2017-04-06T06:45:51.629Z,65536
2017-04-06T06:46:36.738Z,64832
2017-04-06T06:47:36.767Z,60864
2017-04-06T06:48:51.719Z,71552
2017-04-06T06:50:37.162Z,54048
2017-04-06T06:51:37.192Z,19168
2017-04-06T06:52:51.533Z,67520
2017-04-06T06:53:37.244Z,67648
2017-04-06T06:54:37.282Z,64352
2017-04-06T06:55:37.001Z,65728
2017-04-06T06:56:37.338Z,65888
2017-04-06T06:57:37.369Z,62560
2017-04-06T06:58:37.396Z,68736
2017-04-06T06:59:37.427Z,74112
2017-04-06T07:00:37.462Z,73600
2017-04-06T07:01:37.483Z,26912
2017-04-06T07:02:52.134Z,71232
2017-04-06T07:03:37.549Z,72512
2017-04-06T07:04:37.575Z,75488
2017-04-06T07:05:37.607Z,15276
2017-04-06T07:07:37.363Z,70720
2017-04-06T07:08:52.313Z,67616
2017-04-06T07:09:37.734Z,69408
2017-04-06T07:10:37.762Z,70976
2017-04-06T07:11:37.791Z,69952
2017-04-06T07:12:37.818Z,69536
2017-04-06T07:13:37.859Z,68928
2017-04-06T07:14:37.883Z,66432
2017-04-06T07:15:37.918Z,64800
2017-04-06T07:16:37.957Z,67296
2017-04-06T07:17:37.986Z,69952
2017-04-06T07:18:52.639Z,70368
2017-04-06T07:20:37.777Z,70784
2017-04-06T07:22:38.134Z,68928
2017-04-06T07:23:38.164Z,69408
2017-04-06T07:24:52.814Z,55904
2017-04-06T07:25:38.227Z,65024
2017-04-06T07:26:38.263Z,65504
2017-04-06T07:27:38.287Z,66976
2017-04-06T07:28:38.324Z,66016
2017-04-06T07:29:38.354Z,65024
2017-04-06T07:30:38.093Z,66432
2017-04-06T07:31:38.417Z,42720
2017-04-06T07:32:53.066Z,63552
2017-04-06T07:33:53.095Z,67168
2017-04-06T07:34:38.511Z,71488
2017-04-06T07:35:53.509Z,66528
2017-04-06T07:36:38.575Z,65504
2017-04-06T07:37:53.224Z,65920
2017-04-06T07:38:38.645Z,64416
2017-04-06T07:39:38.665Z,60608
2017-04-06T07:40:53.366Z,64384
2017-04-06T07:41:38.733Z,56928
2017-04-06T07:42:38.760Z,64320
2017-04-06T07:43:38.816Z,64128
2017-04-06T07:44:38.826Z,63904
2017-04-06T07:45:38.854Z,62048
2017-04-06T07:46:38.882Z,61088
2017-04-06T07:47:38.917Z,64352
2017-04-06T07:48:38.948Z,62528
2017-04-06T07:50:39.013Z,62304
2017-04-06T07:51:39.039Z,59936
2017-04-06T07:52:39.073Z,60384
2017-04-06T07:53:39.107Z,61888
2017-04-06T07:54:39.134Z,60800
2017-04-06T07:55:53.782Z,59616
2017-04-06T07:56:39.200Z,55584
2017-04-06T07:57:39.228Z,59680
2017-04-06T07:58:39.260Z,58944
2017-04-06T07:59:39.287Z,57088
2017-04-06T08:00:38.713Z,56864
2017-04-06T08:01:39.048Z,56352
2017-04-06T08:02:39.381Z,56384
2017-04-06T08:03:39.410Z,56384
2017-04-06T08:04:39.441Z,56160
2017-04-06T08:05:38.867Z,57760
2017-04-06T08:06:39.209Z,52864
2017-04-06T08:07:54.153Z,53952
2017-04-06T08:08:39.268Z,56000
2017-04-06T08:09:39.290Z,55648
2017-04-06T08:10:39.628Z,55424
2017-04-06T08:11:39.353Z,54240
2017-04-06T08:12:39.387Z,52320
2017-04-06T08:13:39.719Z,52512
2017-04-06T08:14:39.753Z,50656
2017-04-06T08:15:39.781Z,52224
2017-04-06T08:16:39.812Z,51008
2017-04-06T08:17:39.542Z,50144
2017-04-06T08:18:39.878Z,47968
2017-04-06T08:19:54.545Z,48992
2017-04-06T08:20:39.633Z,49664
2017-04-06T08:21:39.672Z,44736
2017-04-06T08:24:40.061Z,45184
2017-04-06T08:25:39.789Z,44256
2017-04-06T08:26:40.119Z,43584
2017-04-06T08:27:54.767Z,40864
2017-04-06T08:28:39.877Z,40992
2017-04-06T08:29:40.207Z,42272
2017-04-06T08:30:40.240Z,41632
2017-04-06T08:31:40.286Z,39328
2017-04-06T08:32:40.012Z,38592
2017-04-06T08:33:40.041Z,37280
2017-04-06T08:34:54.982Z,38592
2017-04-06T08:35:40.402Z,39456
2017-04-06T08:36:40.424Z,39712
2017-04-06T08:37:40.148Z,35648
2017-04-06T08:39:55.141Z,20448
2017-04-06T08:40:40.547Z,19968
2017-04-06T08:41:55.209Z,20448
2017-04-06T08:42:40.299Z,19744
2017-04-06T08:43:55.250Z,19424
2017-04-06T08:44:40.662Z,19360
2017-04-06T08:45:40.690Z,19296
2017-04-06T08:46:40.416Z,19296
2017-04-06T08:47:40.749Z,19168
2017-04-06T08:48:40.790Z,18944
2017-04-06T08:49:40.812Z,18880
2017-04-06T08:50:40.534Z,18656
2017-04-06T08:51:40.567Z,18688
2017-04-06T08:52:40.597Z,18752
2017-04-06T08:53:40.926Z,18528
2017-04-06T08:54:40.960Z,18368
2017-04-06T08:57:41.050Z,18368
2017-04-06T08:58:41.077Z,18272
2017-04-06T08:59:55.720Z,18464
2017-04-06T09:00:41.135Z,18336
2017-04-06T09:01:41.164Z,18464
2017-04-06T09:02:41.193Z,18336
2017-04-06T09:03:41.223Z,18432
2017-04-06T09:04:41.253Z,18272
2017-04-06T09:05:55.896Z,18336
2017-04-06T09:06:41.309Z,18464
2017-04-06T09:07:41.365Z,18528
2017-04-06T09:08:41.362Z,18496
2017-04-06T09:09:41.392Z,18272
2017-04-06T09:10:56.041Z,18336
2017-04-06T09:11:56.067Z,18784
2017-04-06T09:12:41.490Z,19040
2017-04-06T09:14:41.240Z,18400
2017-04-06T09:15:56.179Z,18528
2017-04-06T09:16:41.296Z,18688
2017-04-06T09:17:41.622Z,18272
2017-04-06T09:18:41.653Z,17952
2017-04-06T09:19:41.376Z,17824
2017-04-06T09:20:41.407Z,17888
2017-04-06T09:21:41.430Z,18048
2017-04-06T09:22:41.458Z,18592
2017-04-06T09:23:41.193Z,19328
2017-04-06T09:24:41.518Z,19744
2017-04-06T09:25:56.469Z,19552
2017-04-06T09:26:56.494Z,18656
2017-04-06T09:29:41.660Z,18144
2017-04-06T09:30:56.609Z,17728
2017-04-06T09:31:42.020Z,17536
2017-04-06T09:32:42.048Z,17376
2017-04-06T09:33:56.698Z,17344
2017-04-06T09:34:41.511Z,17088
2017-04-06T09:35:42.137Z,16828
2017-04-06T09:36:42.157Z,16528
2017-04-06T09:37:42.190Z,16396
2017-04-06T09:38:41.610Z,16368
2017-04-06T09:39:42.246Z,16120
2017-04-06T09:40:56.891Z,16372
2017-04-06T09:41:42.004Z,16564
2017-04-06T09:42:42.335Z,16400
2017-04-06T09:43:42.359Z,15920
2017-04-06T09:44:42.382Z,15732
2017-04-06T09:45:42.413Z,15676
2017-04-06T09:46:42.450Z,15668
2017-04-06T09:47:42.468Z,15864
2017-04-06T09:48:42.497Z,16188
2017-04-06T09:49:42.521Z,16212
2017-04-06T09:50:42.247Z,16796
2017-04-06T09:51:57.198Z,17600
2017-04-06T09:52:42.606Z,17504
2017-04-06T09:53:57.250Z,16732
2017-04-06T09:54:42.663Z,16612
2017-04-06T09:55:42.685Z,17184
2017-04-06T09:56:42.408Z,17568
2017-04-06T09:57:42.742Z,9388
2017-04-06T09:58:57.394Z,17216
2017-04-06T09:59:42.496Z,17152
2017-04-06T10:00:42.825Z,16744
2017-04-06T10:01:42.852Z,7552
2017-04-06T10:02:57.498Z,17056
2017-04-06T10:03:42.905Z,17440
2017-04-06T10:04:42.941Z,18080
2017-04-06T10:05:42.659Z,17696
2017-04-06T10:06:42.682Z,17280
2017-04-06T10:07:43.017Z,17088
2017-04-06T10:08:43.896Z,16736
2017-04-06T10:09:43.078Z,16540
2017-04-06T10:10:57.418Z,16348
2017-04-06T10:11:42.821Z,16156
2017-04-06T10:12:42.849Z,16184
2017-04-06T10:13:57.798Z,16668
2017-04-06T10:14:43.209Z,17312
2017-04-06T10:15:57.544Z,18016
2017-04-06T10:16:43.284Z,16024
2017-04-06T10:17:43.285Z,19008
2017-04-06T10:18:57.931Z,18528
2017-04-06T10:19:43.344Z,17504
2017-04-06T10:20:43.369Z,7604
2017-04-06T10:21:43.395Z,15928
2017-04-06T10:22:43.122Z,15992
2017-04-06T10:23:43.144Z,16028
2017-04-06T10:24:43.181Z,16300
2017-04-06T10:25:43.201Z,16108
2017-04-06T10:26:43.228Z,16236
2017-04-06T10:27:43.262Z,16436
2017-04-06T10:28:43.284Z,16052
2017-04-06T10:29:43.312Z,7960
2017-04-06T10:30:43.641Z,7644
2017-04-06T10:31:43.665Z,7428
2017-04-06T10:32:43.690Z,7020
2017-04-06T10:33:43.718Z,14592
2017-04-06T10:34:58.361Z,9328
2017-04-06T10:35:43.770Z,10940
2017-04-06T10:36:43.801Z,12600
2017-04-06T10:37:43.825Z,6300
2017-04-06T10:38:43.851Z,5700
2017-04-06T10:39:43.876Z,5472
2017-04-06T10:40:43.903Z,5780
2017-04-06T10:41:44.079Z,13536
2017-04-06T10:42:43.654Z,13388
2017-04-06T10:43:43.986Z,13092
2017-04-06T10:44:44.010Z,13196
2017-04-06T10:45:44.044Z,14120
2017-04-06T10:46:44.059Z,14852
2017-04-06T10:47:44.090Z,8788
2017-04-06T10:48:43.806Z,7756
2017-04-06T10:49:44.133Z,7220
2017-04-06T10:51:13.399Z,6656
2017-04-06T10:51:43.885Z,6500
2017-04-06T10:52:43.911Z,6788
2017-04-06T10:53:44.234Z,7100
2017-04-06T10:54:58.881Z,12204
2017-04-06T10:55:43.983Z,11728
2017-04-06T10:56:44.010Z,11212
2017-04-06T10:57:44.037Z,11020
2017-04-06T10:58:44.386Z,11148
2017-04-06T11:00:44.129Z,5372
2017-04-06T11:02:44.466Z,8924
2017-04-06T11:03:44.489Z,7244
2017-04-06T11:04:44.515Z,4940
2017-04-06T11:05:59.159Z,8108
2017-04-06T11:06:44.566Z,7916
2017-04-06T11:07:44.586Z,4844
2017-04-06T11:08:44.615Z,4544
2017-04-06T11:09:59.258Z,4868
2017-04-06T11:10:44.714Z,5404
2017-04-06T11:11:44.689Z,5596
2017-04-06T11:12:44.711Z,5708
2017-04-06T11:13:44.736Z,6144
2017-04-06T11:14:44.456Z,7484
2017-04-06T11:15:44.785Z,5996
2017-04-06T11:16:59.428Z,9080
2017-04-06T11:17:44.551Z,6916
2017-04-06T11:18:44.559Z,8716
2017-04-06T11:19:44.894Z,7360
2017-04-06T11:20:44.914Z,5572
2017-04-06T11:21:44.937Z,5140
2017-04-06T11:22:44.989Z,4724
2017-04-06T11:23:44.978Z,4632
2017-04-06T11:24:45.009Z,4704
2017-04-06T11:25:45.035Z,4888
2017-04-06T11:26:45.061Z,6160
2017-04-06T11:27:45.080Z,5016
2017-04-06T11:28:45.110Z,7068
2017-04-06T11:29:45.130Z,7444
2017-04-06T11:30:45.148Z,6764
2017-04-06T11:31:59.494Z,5896
2017-04-06T11:32:45.206Z,6016
2017-04-06T11:33:45.226Z,6556
2017-04-06T11:35:45.276Z,6440
2017-04-06T11:36:45.332Z,6160
2017-04-06T11:37:59.937Z,7476
2017-04-06T11:38:45.348Z,6080
2017-04-06T11:39:45.374Z,5132
2017-04-06T11:40:45.398Z,4892
2017-04-06T11:41:45.423Z,5888
2017-04-06T11:42:45.456Z,6576
2017-04-06T11:43:45.471Z,6572
2017-04-06T11:44:45.188Z,6460
2017-04-06T11:45:45.216Z,6520
2017-04-06T11:46:44.933Z,6568
2017-04-06T11:47:45.262Z,6092
2017-04-06T11:48:45.587Z,6404
2017-04-06T11:50:00.229Z,5256
2017-04-06T11:50:45.652Z,7444
2017-04-06T11:52:00.282Z,5936
2017-04-06T11:54:00.328Z,5660
2017-04-06T11:55:00.357Z,5616
2017-04-06T11:55:45.758Z,5484
2017-04-06T11:56:45.784Z,5512
2017-04-06T11:57:45.504Z,7620
2017-04-06T11:58:45.527Z,7764
2017-04-06T11:59:45.849Z,5984
2017-04-06T12:01:00.511Z,7920
2017-04-06T12:02:00.520Z,7736
2017-04-06T12:02:45.929Z,7616
2017-04-06T12:03:45.646Z,5736
2017-04-06T12:05:00.591Z,5172
2017-04-06T12:05:45.999Z,5080
2017-04-06T12:06:46.021Z,7088
2017-04-06T12:07:46.047Z,7240
2017-04-06T12:08:46.073Z,7136
2017-04-06T12:10:00.711Z,5100
2017-04-06T12:11:00.741Z,5160
2017-04-06T12:11:46.140Z,5072
2017-04-06T12:12:46.170Z,5036
2017-04-06T12:13:46.189Z,5332
2017-04-06T12:14:45.915Z,6052
2017-04-06T12:15:46.240Z,6708
2017-04-06T12:16:46.367Z,8892
2017-04-06T12:17:46.287Z,9040
2017-04-06T12:19:00.623Z,8740
2017-04-06T12:19:46.341Z,8964
2017-04-06T12:20:46.360Z,8752
2017-04-06T12:21:46.392Z,8784
2017-04-06T12:23:01.036Z,8748
2017-04-06T12:23:46.432Z,8584
2017-04-06T12:24:46.459Z,6108
2017-04-06T12:26:01.096Z,5916
2017-04-06T12:26:46.200Z,5892
2017-04-06T12:27:46.532Z,7604
2017-04-06T12:28:46.251Z,8784
2017-04-06T12:29:46.584Z,8336
2017-04-06T12:30:46.603Z,8072
2017-04-06T12:31:46.626Z,7748
2017-04-06T12:32:46.649Z,8176
2017-04-06T12:33:46.417Z,7940
2017-04-06T12:34:46.698Z,7200
2017-04-06T12:36:46.752Z,6400
2017-04-06T12:37:46.773Z,7364
2017-04-06T12:38:46.494Z,7284
2017-04-06T12:39:46.825Z,6592
2017-04-06T12:41:01.462Z,6884
2017-04-06T12:41:46.884Z,6640
2017-04-06T12:42:46.588Z,7724
2017-04-06T12:43:46.637Z,7632
2017-04-06T12:44:46.940Z,9812
2017-04-06T12:45:47.819Z,9912
2017-04-06T12:46:46.988Z,10212
2017-04-06T12:47:47.016Z,9604
2017-04-06T12:48:47.037Z,9640
2017-04-06T12:49:47.065Z,7156
2017-04-06T12:50:47.086Z,8000
2017-04-06T12:52:01.730Z,6776
2017-04-06T12:52:47.142Z,6692
2017-04-06T12:53:47.154Z,6196
2017-04-06T12:54:47.189Z,5904
2017-04-06T12:56:47.245Z,5340
2017-04-06T12:57:47.255Z,5132
2017-04-06T12:58:47.279Z,5108
2017-04-06T12:59:47.001Z,7320
2017-04-06T13:00:47.330Z,4864
2017-04-06T13:01:47.056Z,4792
2017-04-06T13:02:47.383Z,5248
2017-04-06T13:03:47.406Z,8236
2017-04-06T13:05:02.045Z,6352
2017-04-06T13:06:47.484Z,6896
2017-04-06T13:07:47.511Z,5884
2017-04-06T13:08:47.523Z,6980
2017-04-06T13:09:47.900Z,6512
2017-04-06T13:11:47.600Z,8520
2017-04-06T13:13:02.490Z,8712
2017-04-06T13:13:47.648Z,8768
2017-04-06T13:14:47.674Z,8668
2017-04-06T13:15:47.694Z,8500
2017-04-06T13:16:47.724Z,5856
2017-04-06T13:17:47.740Z,7508
2017-04-06T13:19:02.385Z,8376
2017-04-06T13:19:47.790Z,6508
2017-04-06T13:20:47.818Z,7176
2017-04-06T13:21:47.546Z,7280
2017-04-06T13:22:48.075Z,4852
2017-04-06T13:23:47.586Z,4760
2017-04-06T13:25:02.532Z,4624
2017-04-06T13:26:47.966Z,4512
2017-04-06T13:27:47.988Z,4536
2017-04-06T13:29:02.325Z,7276
2017-04-06T13:29:48.039Z,7300
2017-04-06T13:30:48.061Z,7400
2017-04-06T13:31:48.116Z,5204
2017-04-06T13:33:02.736Z,7484
2017-04-06T13:33:48.161Z,7504
2017-04-06T13:34:48.183Z,7760
2017-04-06T13:35:48.218Z,5536
2017-04-06T13:36:47.922Z,5596
2017-04-06T13:37:47.939Z,7736
2017-04-06T13:38:48.252Z,6944
2017-04-06T13:40:02.894Z,7888
2017-04-06T13:40:48.306Z,7796
2017-04-06T13:42:48.353Z,5152
2017-04-06T13:45:03.013Z,5112
2017-04-06T13:45:48.424Z,6512
2017-04-06T13:46:48.157Z,7364
2017-04-06T13:47:49.220Z,6824
2017-04-06T13:48:48.495Z,7332
2017-04-06T13:49:48.520Z,7064
2017-04-06T13:50:48.848Z,5588
2017-04-06T13:51:48.569Z,8004
2017-04-06T13:53:48.918Z,5944
2017-04-06T13:54:48.642Z,5512
2017-04-06T13:55:48.663Z,6052
2017-04-06T13:56:48.695Z,5624
2017-04-06T13:57:48.713Z,5384
2017-04-06T13:59:03.379Z,6996
2017-04-06T13:59:48.458Z,4712
2017-04-06T14:01:03.406Z,6168
2017-04-06T14:01:49.464Z,7296
2017-04-06T14:02:48.529Z,4452
2017-04-06T14:03:48.860Z,6404
2017-04-06T14:04:48.879Z,4552
2017-04-06T14:05:48.605Z,4624
2017-04-06T14:07:03.547Z,4564
2017-04-06T14:07:48.955Z,4548
2017-04-06T14:08:48.974Z,5916
2017-04-06T14:09:49.006Z,7428
2017-04-06T14:10:49.039Z,5796
2017-04-06T14:12:49.076Z,7836
2017-04-06T14:14:49.124Z,8124
2017-04-06T14:16:03.761Z,5764
2017-04-06T14:16:48.870Z,7256
2017-04-06T14:17:49.892Z,7020
2017-04-06T14:18:49.217Z,5740
2017-04-06T14:19:49.243Z,7600
2017-04-06T14:20:49.270Z,5220
2017-04-06T14:22:03.605Z,5224
2017-04-06T14:22:49.317Z,7664
2017-04-06T14:24:03.651Z,5280
2017-04-06T14:24:49.359Z,5400
2017-04-06T14:26:03.740Z,7912
2017-04-06T14:27:04.029Z,5324
2017-04-06T14:28:49.458Z,5372